sensor_id;sensor_type;location;lat;lon;timestamp;temperature;humidity
2721;DHT22;1368;49.484;11.112;2023-12-04T00:01:53;-6.00;99.90
2721;DHT22;1368;49.484;11.112;2023-12-04T00:04:19;-6.00;99.90
2721;DHT22;1368;49.484;11.112;2023-12-04T00:06:44;-6.00;99.90
2721;DHT22;1368;49.484;11.112;2023-12-04T00:09:10;-6.00;99.90
2721;DHT22;1368;49.484;11.112;2023-12-04T00:11:35;-5.90;99.90
2721;DHT22;1368;49.484;11.112;2023-12-04T00:14:01;-5.80;99.90
2721;DHT22;1368;49.484;11.112;2023-12-04T00:16:26;-5.80;99.90
2721;DHT22;1368;49.484;11.112;2023-12-04T00:18:52;-5.90;99.90
2721;DHT22;1368;49.484;11.112;2023-12-04T00:21:18;-5.90;99.90
2721;DHT22;1368;49.484;11.112;2023-12-04T00:23:43;-5.70;99.90
2721;DHT22;1368;49.484;11.112;2023-12-04T00:26:09;-5.80;99.90
2721;DHT22;1368;49.484;11.112;2023-12-04T00:28:37;-5.40;99.90
2721;DHT22;1368;49.484;11.112;2023-12-04T00:31:03;-5.80;99.90
2721;DHT22;1368;49.484;11.112;2023-12-04T00:33:28;-5.80;99.90
2721;DHT22;1368;49.484;11.112;2023-12-04T00:35:54;-5.70;99.90
2721;DHT22;1368;49.484;11.112;2023-12-04T00:38:20;-5.60;99.90
2721;DHT22;1368;49.484;11.112;2023-12-04T00:40:45;-5.70;99.90
2721;DHT22;1368;49.484;11.112;2023-12-04T00:43:11;-5.80;99.90
2721;DHT22;1368;49.484;11.112;2023-12-04T00:45:36;-5.90;99.90
2721;DHT22;1368;49.484;11.112;2023-12-04T00:48:02;-5.90;99.90
2721;DHT22;1368;49.484;11.112;2023-12-04T00:50:28;-5.90;99.90
2721;DHT22;1368;49.484;11.112;2023-12-04T00:52:54;-5.90;99.90
2721;DHT22;1368;49.484;11.112;2023-12-04T00:55:19;-5.80;99.90
2721;DHT22;1368;49.484;11.112;2023-12-04T00:57:45;-5.80;99.90
2721;DHT22;1368;49.484;11.112;2023-12-04T01:00:11;-5.80;99.90
2721;DHT22;1368;49.484;11.112;2023-12-04T01:02:37;-5.90;99.90
2721;DHT22;1368;49.484;11.112;2023-12-04T01:05:03;-5.90;99.90
2721;DHT22;1368;49.484;11.112;2023-12-04T01:07:28;-5.90;99.90
2721;DHT22;1368;49.484;11.112;2023-12-04T01:09:54;-5.80;99.90
2721;DHT22;1368;49.484;11.112;2023-12-04T01:12:20;-5.80;99.90
2721;DHT22;1368;49.484;11.112;2023-12-04T01:14:46;-5.60;99.90
2721;DHT22;1368;49.484;11.112;2023-12-04T01:17:12;-5.50;99.90
2721;DHT22;1368;49.484;11.112;2023-12-04T01:19:37;-5.50;99.90
2721;DHT22;1368;49.484;11.112;2023-12-04T01:22:03;-5.60;99.90
2721;DHT22;1368;49.484;11.112;2023-12-04T01:24:28;-5.60;99.90
2721;DHT22;1368;49.484;11.112;2023-12-04T01:26:54;-5.50;99.90
2721;DHT22;1368;49.484;11.112;2023-12-04T01:29:19;-5.60;99.90
2721;DHT22;1368;49.484;11.112;2023-12-04T01:31:45;-5.70;99.90
2721;DHT22;1368;49.484;11.112;2023-12-04T01:34:10;-5.80;99.90
2721;DHT22;1368;49.484;11.112;2023-12-04T01:36:40;-5.80;99.90
2721;DHT22;1368;49.484;11.112;2023-12-04T01:39:06;-5.90;99.90
2721;DHT22;1368;49.484;11.112;2023-12-04T01:41:31;-5.80;99.90
2721;DHT22;1368;49.484;11.112;2023-12-04T01:43:57;-5.90;99.90
2721;DHT22;1368;49.484;11.112;2023-12-04T01:46:22;-6.00;99.90
2721;DHT22;1368;49.484;11.112;2023-12-04T01:48:49;-5.80;99.90
2721;DHT22;1368;49.484;11.112;2023-12-04T01:51:16;-5.70;99.90
2721;DHT22;1368;49.484;11.112;2023-12-04T01:53:42;-5.90;99.90
2721;DHT22;1368;49.484;11.112;2023-12-04T01:56:08;-5.90;99.90
2721;DHT22;1368;49.484;11.112;2023-12-04T01:58:34;-5.90;99.90
2721;DHT22;1368;49.484;11.112;2023-12-04T02:01:00;-5.80;99.90
2721;DHT22;1368;49.484;11.112;2023-12-04T02:03:26;-5.60;99.90
2721;DHT22;1368;49.484;11.112;2023-12-04T02:05:53;-5.70;99.90
2721;DHT22;1368;49.484;11.112;2023-12-04T02:08:19;-5.80;99.90
2721;DHT22;1368;49.484;11.112;2023-12-04T02:10:45;-5.80;99.90
2721;DHT22;1368;49.484;11.112;2023-12-04T02:13:11;-5.80;99.90
2721;DHT22;1368;49.484;11.112;2023-12-04T02:15:37;-5.70;99.90
2721;DHT22;1368;49.484;11.112;2023-12-04T02:18:03;-5.80;99.90
2721;DHT22;1368;49.484;11.112;2023-12-04T02:20:35;-5.80;99.90
2721;DHT22;1368;49.484;11.112;2023-12-04T02:23:01;-5.80;99.90
2721;DHT22;1368;49.484;11.112;2023-12-04T02:25:27;-5.80;99.90
2721;DHT22;1368;49.484;11.112;2023-12-04T02:27:54;-5.80;99.90
2721;DHT22;1368;49.484;11.112;2023-12-04T02:30:23;-5.80;99.90
2721;DHT22;1368;49.484;11.112;2023-12-04T02:32:50;-5.70;99.90
2721;DHT22;1368;49.484;11.112;2023-12-04T02:35:28;-5.60;99.90
2721;DHT22;1368;49.484;11.112;2023-12-04T02:37:55;-5.50;99.90
2721;DHT22;1368;49.484;11.112;2023-12-04T02:40:23;-5.50;99.90
2721;DHT22;1368;49.484;11.112;2023-12-04T02:42:49;-5.50;99.90
2721;DHT22;1368;49.484;11.112;2023-12-04T02:45:15;-5.60;99.90
2721;DHT22;1368;49.484;11.112;2023-12-04T02:47:40;-5.60;99.90
2721;DHT22;1368;49.484;11.112;2023-12-04T02:50:06;-5.50;99.90
2721;DHT22;1368;49.484;11.112;2023-12-04T02:52:32;-5.50;99.90
2721;DHT22;1368;49.484;11.112;2023-12-04T02:54:58;-5.50;99.90
2721;DHT22;1368;49.484;11.112;2023-12-04T02:57:23;-5.60;99.90
2721;DHT22;1368;49.484;11.112;2023-12-04T02:59:49;-5.40;99.90
2721;DHT22;1368;49.484;11.112;2023-12-04T03:02:14;-5.30;99.90
2721;DHT22;1368;49.484;11.112;2023-12-04T03:04:40;-5.30;99.90
2721;DHT22;1368;49.484;11.112;2023-12-04T03:07:06;-5.40;99.90
2721;DHT22;1368;49.484;11.112;2023-12-04T03:09:31;-5.30;99.90
2721;DHT22;1368;49.484;11.112;2023-12-04T03:11:57;-5.30;99.90
2721;DHT22;1368;49.484;11.112;2023-12-04T03:14:22;-5.30;99.90
2721;DHT22;1368;49.484;11.112;2023-12-04T03:16:49;-5.30;99.90
2721;DHT22;1368;49.484;11.112;2023-12-04T03:19:14;-5.10;99.90
2721;DHT22;1368;49.484;11.112;2023-12-04T03:21:40;-5.00;99.90
2721;DHT22;1368;49.484;11.112;2023-12-04T03:24:05;-5.00;99.90
2721;DHT22;1368;49.484;11.112;2023-12-04T03:26:31;-5.20;99.90
2721;DHT22;1368;49.484;11.112;2023-12-04T03:28:57;-5.20;99.90
2721;DHT22;1368;49.484;11.112;2023-12-04T03:31:23;-5.30;99.90
2721;DHT22;1368;49.484;11.112;2023-12-04T03:33:48;-5.10;99.90
2721;DHT22;1368;49.484;11.112;2023-12-04T03:36:14;-5.20;99.90
2721;DHT22;1368;49.484;11.112;2023-12-04T03:38:39;-5.10;99.90
2721;DHT22;1368;49.484;11.112;2023-12-04T03:41:12;-5.10;99.90
2721;DHT22;1368;49.484;11.112;2023-12-04T03:43:38;-5.00;99.90
2721;DHT22;1368;49.484;11.112;2023-12-04T03:46:04;-5.20;99.90
2721;DHT22;1368;49.484;11.112;2023-12-04T03:48:29;-5.40;99.90
2721;DHT22;1368;49.484;11.112;2023-12-04T03:50:55;-5.40;99.90
2721;DHT22;1368;49.484;11.112;2023-12-04T03:53:20;-5.30;99.90
2721;DHT22;1368;49.484;11.112;2023-12-04T03:55:46;-5.10;99.90
2721;DHT22;1368;49.484;11.112;2023-12-04T03:58:11;-5.10;99.90
2721;DHT22;1368;49.484;11.112;2023-12-04T04:00:37;-5.10;99.90
2721;DHT22;1368;49.484;11.112;2023-12-04T04:03:06;-4.90;99.90
2721;DHT22;1368;49.484;11.112;2023-12-04T04:05:32;-5.00;99.90
2721;DHT22;1368;49.484;11.112;2023-12-04T04:07:59;-5.20;99.90
2721;DHT22;1368;49.484;11.112;2023-12-04T04:10:25;-5.50;99.90
2721;DHT22;1368;49.484;11.112;2023-12-04T04:12:50;-5.50;99.90
2721;DHT22;1368;49.484;11.112;2023-12-04T04:15:16;-5.60;99.90
2721;DHT22;1368;49.484;11.112;2023-12-04T04:17:42;-5.70;99.90
2721;DHT22;1368;49.484;11.112;2023-12-04T04:20:08;-5.70;99.90
2721;DHT22;1368;49.484;11.112;2023-12-04T04:22:34;-5.70;99.90
2721;DHT22;1368;49.484;11.112;2023-12-04T04:25:04;-5.80;99.90
2721;DHT22;1368;49.484;11.112;2023-12-04T04:27:30;-5.80;99.90
2721;DHT22;1368;49.484;11.112;2023-12-04T04:29:55;-5.70;99.90
2721;DHT22;1368;49.484;11.112;2023-12-04T04:32:21;-5.70;99.90
2721;DHT22;1368;49.484;11.112;2023-12-04T04:34:46;-5.80;99.90
2721;DHT22;1368;49.484;11.112;2023-12-04T04:37:12;-5.70;99.90
2721;DHT22;1368;49.484;11.112;2023-12-04T04:39:39;-5.60;99.90
2721;DHT22;1368;49.484;11.112;2023-12-04T04:42:05;-5.60;99.90
2721;DHT22;1368;49.484;11.112;2023-12-04T04:44:31;-5.50;99.90
2721;DHT22;1368;49.484;11.112;2023-12-04T04:46:56;-5.30;99.90
2721;DHT22;1368;49.484;11.112;2023-12-04T04:49:22;-5.10;99.90
2721;DHT22;1368;49.484;11.112;2023-12-04T04:51:47;-5.20;99.90
2721;DHT22;1368;49.484;11.112;2023-12-04T04:54:13;-5.10;99.90
2721;DHT22;1368;49.484;11.112;2023-12-04T04:56:38;-5.30;99.90
2721;DHT22;1368;49.484;11.112;2023-12-04T04:59:04;-5.30;99.90
2721;DHT22;1368;49.484;11.112;2023-12-04T05:01:29;-5.20;99.90
2721;DHT22;1368;49.484;11.112;2023-12-04T05:03:55;-5.10;99.90
2721;DHT22;1368;49.484;11.112;2023-12-04T05:06:20;-5.10;99.90
2721;DHT22;1368;49.484;11.112;2023-12-04T05:08:48;-5.10;99.90
2721;DHT22;1368;49.484;11.112;2023-12-04T05:11:17;-5.10;99.90
2721;DHT22;1368;49.484;11.112;2023-12-04T05:13:42;-5.20;99.90
2721;DHT22;1368;49.484;11.112;2023-12-04T05:16:08;-5.20;99.90
2721;DHT22;1368;49.484;11.112;2023-12-04T05:18:34;-5.20;99.90
2721;DHT22;1368;49.484;11.112;2023-12-04T05:20:59;-5.20;99.90
2721;DHT22;1368;49.484;11.112;2023-12-04T05:23:25;-5.30;99.90
2721;DHT22;1368;49.484;11.112;2023-12-04T05:25:50;-5.40;99.90
2721;DHT22;1368;49.484;11.112;2023-12-04T05:28:16;-5.20;99.90
2721;DHT22;1368;49.484;11.112;2023-12-04T05:30:42;-5.00;99.90
2721;DHT22;1368;49.484;11.112;2023-12-04T05:33:07;-4.80;99.90
2721;DHT22;1368;49.484;11.112;2023-12-04T05:35:33;-5.10;99.90
2721;DHT22;1368;49.484;11.112;2023-12-04T05:38:00;-5.00;99.90
2721;DHT22;1368;49.484;11.112;2023-12-04T05:40:25;-4.70;99.90
2721;DHT22;1368;49.484;11.112;2023-12-04T05:42:51;-4.80;99.90
2721;DHT22;1368;49.484;11.112;2023-12-04T05:45:16;-4.90;99.90
2721;DHT22;1368;49.484;11.112;2023-12-04T05:47:42;-4.80;99.90
2721;DHT22;1368;49.484;11.112;2023-12-04T05:50:08;-4.80;99.90
2721;DHT22;1368;49.484;11.112;2023-12-04T05:52:33;-4.90;99.90
2721;DHT22;1368;49.484;11.112;2023-12-04T05:54:59;-4.90;99.90
2721;DHT22;1368;49.484;11.112;2023-12-04T05:57:25;-5.00;99.90
2721;DHT22;1368;49.484;11.112;2023-12-04T05:59:50;-4.90;99.90
2721;DHT22;1368;49.484;11.112;2023-12-04T06:02:16;-4.70;99.90
2721;DHT22;1368;49.484;11.112;2023-12-04T06:04:41;-4.70;99.90
2721;DHT22;1368;49.484;11.112;2023-12-04T06:07:07;-4.70;99.90
2721;DHT22;1368;49.484;11.112;2023-12-04T06:09:33;-4.70;99.90
2721;DHT22;1368;49.484;11.112;2023-12-04T06:11:58;-4.70;99.90
2721;DHT22;1368;49.484;11.112;2023-12-04T06:14:29;-4.10;99.90
2721;DHT22;1368;49.484;11.112;2023-12-04T06:16:55;-4.70;99.90
2721;DHT22;1368;49.484;11.112;2023-12-04T06:19:21;-4.60;99.90
2721;DHT22;1368;49.484;11.112;2023-12-04T06:21:46;-4.20;99.90
2721;DHT22;1368;49.484;11.112;2023-12-04T06:24:12;-4.00;99.90
2721;DHT22;1368;49.484;11.112;2023-12-04T06:26:40;-3.70;99.90
2721;DHT22;1368;49.484;11.112;2023-12-04T06:29:07;-3.80;99.90
2721;DHT22;1368;49.484;11.112;2023-12-04T06:31:32;-4.00;99.90
2721;DHT22;1368;49.484;11.112;2023-12-04T06:33:58;-4.00;99.90
2721;DHT22;1368;49.484;11.112;2023-12-04T06:36:24;-3.80;99.90
2721;DHT22;1368;49.484;11.112;2023-12-04T06:38:52;-4.10;99.90
2721;DHT22;1368;49.484;11.112;2023-12-04T06:41:18;-4.10;99.90
2721;DHT22;1368;49.484;11.112;2023-12-04T06:43:44;-4.10;99.90
2721;DHT22;1368;49.484;11.112;2023-12-04T06:46:11;-3.80;99.90
2721;DHT22;1368;49.484;11.112;2023-12-04T06:48:39;-4.00;99.90
2721;DHT22;1368;49.484;11.112;2023-12-04T06:51:07;-4.00;99.90
2721;DHT22;1368;49.484;11.112;2023-12-04T06:53:32;-4.00;99.90
2721;DHT22;1368;49.484;11.112;2023-12-04T06:55:58;-3.90;99.90
2721;DHT22;1368;49.484;11.112;2023-12-04T06:58:23;-3.80;99.90
2721;DHT22;1368;49.484;11.112;2023-12-04T07:00:49;-4.00;99.90
2721;DHT22;1368;49.484;11.112;2023-12-04T07:03:15;-4.10;99.90
2721;DHT22;1368;49.484;11.112;2023-12-04T07:05:41;-4.20;99.90
2721;DHT22;1368;49.484;11.112;2023-12-04T07:08:06;-4.30;99.90
2721;DHT22;1368;49.484;11.112;2023-12-04T07:10:32;-4.20;99.90
2721;DHT22;1368;49.484;11.112;2023-12-04T07:12:57;-4.10;99.90
2721;DHT22;1368;49.484;11.112;2023-12-04T07:15:23;-3.90;99.90
2721;DHT22;1368;49.484;11.112;2023-12-04T07:17:48;-3.90;99.90
2721;DHT22;1368;49.484;11.112;2023-12-04T07:20:14;-3.90;99.90
2721;DHT22;1368;49.484;11.112;2023-12-04T07:22:39;-3.90;99.90
2721;DHT22;1368;49.484;11.112;2023-12-04T07:25:06;-3.80;99.90
2721;DHT22;1368;49.484;11.112;2023-12-04T07:27:34;-3.80;99.90
2721;DHT22;1368;49.484;11.112;2023-12-04T07:30:00;-3.70;99.90
2721;DHT22;1368;49.484;11.112;2023-12-04T07:32:26;-3.40;99.90
2721;DHT22;1368;49.484;11.112;2023-12-04T07:34:51;-3.30;99.90
2721;DHT22;1368;49.484;11.112;2023-12-04T07:37:17;-3.40;99.90
2721;DHT22;1368;49.484;11.112;2023-12-04T07:39:43;-3.50;99.90
2721;DHT22;1368;49.484;11.112;2023-12-04T07:42:11;-3.60;99.90
2721;DHT22;1368;49.484;11.112;2023-12-04T07:44:37;-3.60;99.90
2721;DHT22;1368;49.484;11.112;2023-12-04T07:47:03;-3.60;99.90
2721;DHT22;1368;49.484;11.112;2023-12-04T07:49:28;-3.50;99.90
2721;DHT22;1368;49.484;11.112;2023-12-04T07:51:54;-3.10;99.90
2721;DHT22;1368;49.484;11.112;2023-12-04T07:54:19;-3.10;99.90
2721;DHT22;1368;49.484;11.112;2023-12-04T07:56:45;-3.00;99.90
2721;DHT22;1368;49.484;11.112;2023-12-04T07:59:10;-2.60;99.90
2721;DHT22;1368;49.484;11.112;2023-12-04T08:01:36;-2.10;99.90
2721;DHT22;1368;49.484;11.112;2023-12-04T08:04:01;-1.90;99.90
2721;DHT22;1368;49.484;11.112;2023-12-04T08:06:28;-1.70;99.90
2721;DHT22;1368;49.484;11.112;2023-12-04T08:08:53;-1.30;99.90
2721;DHT22;1368;49.484;11.112;2023-12-04T08:11:20;-1.10;99.90
2721;DHT22;1368;49.484;11.112;2023-12-04T08:13:46;-1.00;99.90
2721;DHT22;1368;49.484;11.112;2023-12-04T08:16:15;-0.80;99.90
2721;DHT22;1368;49.484;11.112;2023-12-04T08:18:41;-0.90;99.90
2721;DHT22;1368;49.484;11.112;2023-12-04T08:21:07;-1.00;99.90
2721;DHT22;1368;49.484;11.112;2023-12-04T08:23:33;-1.50;99.90
2721;DHT22;1368;49.484;11.112;2023-12-04T08:25:58;-1.70;99.90
2721;DHT22;1368;49.484;11.112;2023-12-04T08:28:24;-1.80;99.90
2721;DHT22;1368;49.484;11.112;2023-12-04T08:30:50;-1.80;99.90
2721;DHT22;1368;49.484;11.112;2023-12-04T08:33:15;-1.50;99.90
2721;DHT22;1368;49.484;11.112;2023-12-04T08:35:41;-1.20;99.90
2721;DHT22;1368;49.484;11.112;2023-12-04T08:38:07;-1.10;99.90
2721;DHT22;1368;49.484;11.112;2023-12-04T08:40:32;-1.10;99.90
2721;DHT22;1368;49.484;11.112;2023-12-04T08:42:58;-1.00;99.90
2721;DHT22;1368;49.484;11.112;2023-12-04T08:45:24;-0.80;99.90
2721;DHT22;1368;49.484;11.112;2023-12-04T08:47:49;-0.70;99.90
2721;DHT22;1368;49.484;11.112;2023-12-04T08:50:15;-0.70;99.90
2721;DHT22;1368;49.484;11.112;2023-12-04T08:52:41;-0.60;99.90
2721;DHT22;1368;49.484;11.112;2023-12-04T08:55:07;-0.60;99.90
2721;DHT22;1368;49.484;11.112;2023-12-04T08:57:32;-0.60;99.90
2721;DHT22;1368;49.484;11.112;2023-12-04T08:59:58;-0.40;99.90
2721;DHT22;1368;49.484;11.112;2023-12-04T09:02:24;-0.10;99.90
2721;DHT22;1368;49.484;11.112;2023-12-04T09:04:49;0.10;99.90
2721;DHT22;1368;49.484;11.112;2023-12-04T09:07:15;0.10;99.90
2721;DHT22;1368;49.484;11.112;2023-12-04T09:09:41;0.30;99.90
2721;DHT22;1368;49.484;11.112;2023-12-04T09:12:06;0.30;99.90
2721;DHT22;1368;49.484;11.112;2023-12-04T09:14:34;0.50;99.90
2721;DHT22;1368;49.484;11.112;2023-12-04T09:17:00;0.60;99.90
2721;DHT22;1368;49.484;11.112;2023-12-04T09:19:25;0.70;99.90
2721;DHT22;1368;49.484;11.112;2023-12-04T09:21:51;0.60;99.90
2721;DHT22;1368;49.484;11.112;2023-12-04T09:24:16;0.80;99.90
2721;DHT22;1368;49.484;11.112;2023-12-04T09:26:42;0.80;99.90
2721;DHT22;1368;49.484;11.112;2023-12-04T09:29:11;0.60;99.90
2721;DHT22;1368;49.484;11.112;2023-12-04T09:31:37;1.20;99.90
2721;DHT22;1368;49.484;11.112;2023-12-04T09:34:03;0.80;99.90
2721;DHT22;1368;49.484;11.112;2023-12-04T09:36:29;0.80;99.90
2721;DHT22;1368;49.484;11.112;2023-12-04T09:38:55;0.70;99.90
2721;DHT22;1368;49.484;11.112;2023-12-04T09:41:21;0.70;99.90
2721;DHT22;1368;49.484;11.112;2023-12-04T09:43:47;0.50;99.90
2721;DHT22;1368;49.484;11.112;2023-12-04T09:46:13;0.50;99.90
2721;DHT22;1368;49.484;11.112;2023-12-04T09:48:41;0.40;99.90
2721;DHT22;1368;49.484;11.112;2023-12-04T09:51:09;0.50;99.90
2721;DHT22;1368;49.484;11.112;2023-12-04T09:53:35;0.60;99.90
2721;DHT22;1368;49.484;11.112;2023-12-04T09:56:03;0.70;99.90
2721;DHT22;1368;49.484;11.112;2023-12-04T09:58:30;0.90;99.90
2721;DHT22;1368;49.484;11.112;2023-12-04T10:00:59;1.10;99.90
2721;DHT22;1368;49.484;11.112;2023-12-04T10:03:26;1.30;99.90
2721;DHT22;1368;49.484;11.112;2023-12-04T10:05:51;1.50;99.90
2721;DHT22;1368;49.484;11.112;2023-12-04T10:08:17;1.80;99.90
2721;DHT22;1368;49.484;11.112;2023-12-04T10:10:43;1.50;99.90
2721;DHT22;1368;49.484;11.112;2023-12-04T10:13:08;1.40;99.90
2721;DHT22;1368;49.484;11.112;2023-12-04T10:15:46;1.20;99.90
2721;DHT22;1368;49.484;11.112;2023-12-04T10:18:26;1.30;99.90
2721;DHT22;1368;49.484;11.112;2023-12-04T10:20:53;1.60;99.90
2721;DHT22;1368;49.484;11.112;2023-12-04T10:23:20;1.60;99.90
2721;DHT22;1368;49.484;11.112;2023-12-04T10:25:45;1.60;99.90
2721;DHT22;1368;49.484;11.112;2023-12-04T10:28:14;1.50;99.90
2721;DHT22;1368;49.484;11.112;2023-12-04T10:30:41;1.80;99.90
2721;DHT22;1368;49.484;11.112;2023-12-04T10:33:08;2.10;99.90
2721;DHT22;1368;49.484;11.112;2023-12-04T10:35:35;1.80;99.90
2721;DHT22;1368;49.484;11.112;2023-12-04T10:38:05;1.60;99.90
2721;DHT22;1368;49.484;11.112;2023-12-04T10:40:35;1.70;99.90
2721;DHT22;1368;49.484;11.112;2023-12-04T10:45:44;1.40;99.90
2721;DHT22;1368;49.484;11.112;2023-12-04T10:48:11;1.40;99.90
2721;DHT22;1368;49.484;11.112;2023-12-04T10:50:38;1.00;99.90
2721;DHT22;1368;49.484;11.112;2023-12-04T10:53:04;0.90;99.90
2721;DHT22;1368;49.484;11.112;2023-12-04T10:55:31;0.70;99.90
2721;DHT22;1368;49.484;11.112;2023-12-04T10:57:57;1.00;99.90
2721;DHT22;1368;49.484;11.112;2023-12-04T11:00:24;1.20;99.90
2721;DHT22;1368;49.484;11.112;2023-12-04T11:02:54;1.30;99.90
2721;DHT22;1368;49.484;11.112;2023-12-04T11:05:20;1.50;99.90
2721;DHT22;1368;49.484;11.112;2023-12-04T11:07:51;1.70;99.90
2721;DHT22;1368;49.484;11.112;2023-12-04T11:10:21;1.70;99.90
2721;DHT22;1368;49.484;11.112;2023-12-04T11:12:51;1.70;99.90
2721;DHT22;1368;49.484;11.112;2023-12-04T11:15:23;1.70;99.90
2721;DHT22;1368;49.484;11.112;2023-12-04T11:17:55;1.40;99.90
2721;DHT22;1368;49.484;11.112;2023-12-04T11:20:24;1.30;99.90
2721;DHT22;1368;49.484;11.112;2023-12-04T11:22:50;1.40;99.90
2721;DHT22;1368;49.484;11.112;2023-12-04T11:25:16;1.40;99.90
2721;DHT22;1368;49.484;11.112;2023-12-04T11:27:43;1.50;99.90
2721;DHT22;1368;49.484;11.112;2023-12-04T11:30:10;1.60;99.90
2721;DHT22;1368;49.484;11.112;2023-12-04T11:32:48;1.40;99.90
2721;DHT22;1368;49.484;11.112;2023-12-04T11:35:15;0.90;99.90
2721;DHT22;1368;49.484;11.112;2023-12-04T11:37:43;0.80;99.90
2721;DHT22;1368;49.484;11.112;2023-12-04T11:40:16;0.80;99.90
2721;DHT22;1368;49.484;11.112;2023-12-04T11:42:42;0.80;99.90
2721;DHT22;1368;49.484;11.112;2023-12-04T11:45:08;0.70;99.90
2721;DHT22;1368;49.484;11.112;2023-12-04T11:47:50;1.00;99.90
2721;DHT22;1368;49.484;11.112;2023-12-04T11:50:18;0.90;99.90
2721;DHT22;1368;49.484;11.112;2023-12-04T11:52:44;0.70;99.90
2721;DHT22;1368;49.484;11.112;2023-12-04T11:55:10;0.60;99.90
2721;DHT22;1368;49.484;11.112;2023-12-04T11:57:39;0.50;99.90
2721;DHT22;1368;49.484;11.112;2023-12-04T12:05:19;1.10;99.90
2721;DHT22;1368;49.484;11.112;2023-12-04T12:07:46;1.00;99.90
2721;DHT22;1368;49.484;11.112;2023-12-04T12:10:12;0.90;99.90
2721;DHT22;1368;49.484;11.112;2023-12-04T12:12:39;0.40;99.90
2721;DHT22;1368;49.484;11.112;2023-12-04T12:15:08;0.30;99.90
2721;DHT22;1368;49.484;11.112;2023-12-04T12:17:34;0.50;99.90
2721;DHT22;1368;49.484;11.112;2023-12-04T12:20:00;0.60;99.90
2721;DHT22;1368;49.484;11.112;2023-12-04T12:22:25;0.80;99.90
2721;DHT22;1368;49.484;11.112;2023-12-04T12:24:51;0.90;99.90
2721;DHT22;1368;49.484;11.112;2023-12-04T12:27:17;1.10;99.90
2721;DHT22;1368;49.484;11.112;2023-12-04T12:29:43;1.30;99.90
2721;DHT22;1368;49.484;11.112;2023-12-04T12:32:08;1.70;99.90
2721;DHT22;1368;49.484;11.112;2023-12-04T12:34:34;2.00;99.90
2721;DHT22;1368;49.484;11.112;2023-12-04T12:37:03;2.00;99.90
2721;DHT22;1368;49.484;11.112;2023-12-04T12:39:29;1.50;99.90
2721;DHT22;1368;49.484;11.112;2023-12-04T12:41:55;1.70;99.90
2721;DHT22;1368;49.484;11.112;2023-12-04T12:44:21;1.80;99.90
2721;DHT22;1368;49.484;11.112;2023-12-04T12:46:47;2.10;99.90
2721;DHT22;1368;49.484;11.112;2023-12-04T12:49:17;2.00;99.90
2721;DHT22;1368;49.484;11.112;2023-12-04T12:51:43;1.90;99.90
2721;DHT22;1368;49.484;11.112;2023-12-04T12:54:09;1.80;99.90
2721;DHT22;1368;49.484;11.112;2023-12-04T12:56:35;1.80;99.90
2721;DHT22;1368;49.484;11.112;2023-12-04T12:59:01;1.80;99.90
2721;DHT22;1368;49.484;11.112;2023-12-04T13:01:33;1.80;99.90
2721;DHT22;1368;49.484;11.112;2023-12-04T13:04:00;1.40;99.90
2721;DHT22;1368;49.484;11.112;2023-12-04T13:06:26;1.10;99.90
2721;DHT22;1368;49.484;11.112;2023-12-04T13:08:51;0.90;99.90
2721;DHT22;1368;49.484;11.112;2023-12-04T13:11:17;0.90;99.90
2721;DHT22;1368;49.484;11.112;2023-12-04T13:13:44;1.10;99.90
2721;DHT22;1368;49.484;11.112;2023-12-04T13:16:10;1.10;99.90
2721;DHT22;1368;49.484;11.112;2023-12-04T13:18:35;1.10;99.90
2721;DHT22;1368;49.484;11.112;2023-12-04T13:21:01;0.90;99.90
2721;DHT22;1368;49.484;11.112;2023-12-04T13:23:27;0.90;99.90
2721;DHT22;1368;49.484;11.112;2023-12-04T13:25:53;1.00;99.90
2721;DHT22;1368;49.484;11.112;2023-12-04T13:28:20;1.20;99.90
2721;DHT22;1368;49.484;11.112;2023-12-04T13:30:46;1.00;99.90
2721;DHT22;1368;49.484;11.112;2023-12-04T13:33:11;0.80;99.90
2721;DHT22;1368;49.484;11.112;2023-12-04T13:38:12;1.10;99.90
2721;DHT22;1368;49.484;11.112;2023-12-04T13:40:39;1.30;99.90
2721;DHT22;1368;49.484;11.112;2023-12-04T13:43:05;1.20;99.90
2721;DHT22;1368;49.484;11.112;2023-12-04T13:45:50;1.10;99.90
2721;DHT22;1368;49.484;11.112;2023-12-04T13:48:16;1.30;99.90
2721;DHT22;1368;49.484;11.112;2023-12-04T13:50:43;1.30;99.90
2721;DHT22;1368;49.484;11.112;2023-12-04T13:53:09;1.20;99.90
2721;DHT22;1368;49.484;11.112;2023-12-04T13:55:34;1.10;99.90
2721;DHT22;1368;49.484;11.112;2023-12-04T13:58:32;1.20;99.90
2721;DHT22;1368;49.484;11.112;2023-12-04T14:01:02;1.50;99.90
2721;DHT22;1368;49.484;11.112;2023-12-04T14:03:38;1.50;99.90
2721;DHT22;1368;49.484;11.112;2023-12-04T14:06:03;1.00;99.90
2721;DHT22;1368;49.484;11.112;2023-12-04T14:08:29;1.00;99.90
2721;DHT22;1368;49.484;11.112;2023-12-04T14:10:55;1.00;99.90
2721;DHT22;1368;49.484;11.112;2023-12-04T14:13:20;1.00;99.90
2721;DHT22;1368;49.484;11.112;2023-12-04T14:15:46;1.00;99.90
2721;DHT22;1368;49.484;11.112;2023-12-04T14:18:11;0.80;99.90
2721;DHT22;1368;49.484;11.112;2023-12-04T14:20:37;0.60;99.90
2721;DHT22;1368;49.484;11.112;2023-12-04T14:23:03;0.40;99.90
2721;DHT22;1368;49.484;11.112;2023-12-04T14:25:29;0.40;99.90
2721;DHT22;1368;49.484;11.112;2023-12-04T14:27:55;0.40;99.90
2721;DHT22;1368;49.484;11.112;2023-12-04T14:30:20;0.20;99.90
2721;DHT22;1368;49.484;11.112;2023-12-04T14:32:46;0.30;99.90
2721;DHT22;1368;49.484;11.112;2023-12-04T14:35:11;0.30;99.90
2721;DHT22;1368;49.484;11.112;2023-12-04T14:37:39;0.10;99.90
2721;DHT22;1368;49.484;11.112;2023-12-04T14:40:05;0.20;99.90
2721;DHT22;1368;49.484;11.112;2023-12-04T14:42:31;0.30;99.90
2721;DHT22;1368;49.484;11.112;2023-12-04T14:44:56;0.50;99.90
2721;DHT22;1368;49.484;11.112;2023-12-04T14:47:22;0.60;99.90
2721;DHT22;1368;49.484;11.112;2023-12-04T14:49:48;0.40;99.90
2721;DHT22;1368;49.484;11.112;2023-12-04T14:52:18;0.30;99.90
2721;DHT22;1368;49.484;11.112;2023-12-04T14:54:47;0.10;99.90
2721;DHT22;1368;49.484;11.112;2023-12-04T14:57:31;0.10;99.90
2721;DHT22;1368;49.484;11.112;2023-12-04T15:00:06;-0.10;99.90
2721;DHT22;1368;49.484;11.112;2023-12-04T15:02:35;-0.20;99.90
2721;DHT22;1368;49.484;11.112;2023-12-04T15:05:20;-0.20;99.90
2721;DHT22;1368;49.484;11.112;2023-12-04T15:08:05;-0.30;99.90
2721;DHT22;1368;49.484;11.112;2023-12-04T15:11:06;-0.30;99.90
2721;DHT22;1368;49.484;11.112;2023-12-04T15:13:47;-0.30;99.90
2721;DHT22;1368;49.484;11.112;2023-12-04T15:16:31;-0.40;99.90
2721;DHT22;1368;49.484;11.112;2023-12-04T15:19:01;-0.20;99.90
2721;DHT22;1368;49.484;11.112;2023-12-04T15:21:35;-0.40;99.90
2721;DHT22;1368;49.484;11.112;2023-12-04T15:24:01;-0.30;99.90
2721;DHT22;1368;49.484;11.112;2023-12-04T15:26:27;-0.30;99.90
2721;DHT22;1368;49.484;11.112;2023-12-04T15:28:53;0.50;99.90
2721;DHT22;1368;49.484;11.112;2023-12-04T15:31:18;-0.30;99.90
2721;DHT22;1368;49.484;11.112;2023-12-04T15:33:44;-0.40;99.90
2721;DHT22;1368;49.484;11.112;2023-12-04T15:36:09;-0.50;99.90
2721;DHT22;1368;49.484;11.112;2023-12-04T15:38:36;-0.60;99.90
2721;DHT22;1368;49.484;11.112;2023-12-04T15:41:03;-0.50;99.90
2721;DHT22;1368;49.484;11.112;2023-12-04T15:43:29;-0.60;99.90
2721;DHT22;1368;49.484;11.112;2023-12-04T15:45:56;-0.60;99.90
2721;DHT22;1368;49.484;11.112;2023-12-04T15:48:21;-0.40;99.90
2721;DHT22;1368;49.484;11.112;2023-12-04T15:50:47;-0.50;99.90
2721;DHT22;1368;49.484;11.112;2023-12-04T15:53:13;-0.30;99.90
2721;DHT22;1368;49.484;11.112;2023-12-04T15:55:39;-0.30;99.90
2721;DHT22;1368;49.484;11.112;2023-12-04T15:58:04;-0.40;99.90
2721;DHT22;1368;49.484;11.112;2023-12-04T16:00:30;-0.50;99.90